Accueil
METAR-TAF:

METAR-TAF

Aéroports :

Aizawl, Inde

latitude: 23-50-18N, longitude: 92-37-13E, altitude: 405 m

Observation

Le bulletin a été fait il y a 15 minutes, à 06:00 UTC
Vent 5 kt de sud-est
Température 25°C
Humidité 54%
Pression 1018 hPa
Visibilité: 5000 m
Nuages épars à une hauteur de 1800 ft
Nuages fragmentés à une hauteur de 10000 ft
brume sèche

METAR: VELP 080600Z 14005KT 5000 HZ SCT018 BKN100 25/15 Q1018 NOSIG

Heure: 11:45 (06:15 UTC)

Prévision

Le bulletin a été fait il y a 1 heure et 15 minutes, à 05:00 UTC
Prévision valable du 08 à 06 UTC au 08 à 15 UTC
Vent 3 kt de sud/sud-est
Visibilité: 5000 m
Quelques nuages à une hauteur de 2000 ft
Nuages fragmentés à une hauteur de 10000 ft
brume sèche
Evoluant progressivement
du 08 à 07 UTC au 08 à 09 UTC
Visibilité: 3000 m
Nuages épars à une hauteur de 2000 ft
brume

TAF: VELP 080500Z 0806/0815 15003KT 5000 HZ FEW020 BKN100 BECMG 0807/0809 3000 BR SCT020

Observations et prévisions météorologiques de plus de 4000 aéroports (messages METAR et TAF).

Les stations disponibles sont représentées par des disques jaunes et rouges sur la carte.

Passer la souris dessus pour voir le nom de la station.

Cliquer dessus pour voir les observations et prévisions météorologiques.

Pour changer de carte: cliquez sur les boutons verts avec une croix noire pour zoomer, sur le bouton vert avec un tiret pour effectuer un zoom arrière, ou sur les flèches vertes pour les cartes adjacentes.


METAR-TAF: